createdAt,value
2017-11-23T00:00:21.246Z,99223.09
2017-11-23T00:02:47.681Z,99214.78
2017-11-23T00:05:14.117Z,99213.90
2017-11-23T00:07:40.550Z,99212.97
2017-11-23T00:10:06.986Z,99214.89
2017-11-23T00:12:34.137Z,99216.65
2017-11-23T00:15:00.572Z,99215.19
2017-11-23T00:17:27.006Z,99217.70
2017-11-23T00:19:53.441Z,99217.86
2017-11-23T00:22:19.874Z,99216.37
2017-11-23T00:24:46.309Z,99220.12
2017-11-23T00:27:12.749Z,99224.31
2017-11-23T00:29:39.891Z,99213.94
2017-11-23T00:32:06.332Z,99219.09
2017-11-23T00:34:32.699Z,99219.53
2017-11-23T00:36:59.069Z,99219.84
2017-11-23T00:39:25.542Z,99220.30
2017-11-23T00:41:52.078Z,99219.56
2017-11-23T00:44:18.505Z,99215.87
2017-11-23T00:46:45.557Z,99216.33
2017-11-23T00:49:11.987Z,99212.52
2017-11-23T00:51:38.433Z,99214.86
2017-11-23T00:54:04.866Z,99214.63
2017-11-23T00:56:31.290Z,99217.08
2017-11-23T00:58:57.742Z,99211.38
2017-11-23T01:01:24.264Z,99201.09
2017-11-23T01:03:51.402Z,99208.86
2017-11-23T01:06:17.853Z,99202.06
2017-11-23T01:08:44.283Z,99202.00
2017-11-23T01:11:10.717Z,99210.47
2017-11-23T01:13:37.152Z,99218.52
2017-11-23T01:16:03.596Z,99212.62
2017-11-23T01:18:30.032Z,99210.34
2017-11-23T01:20:57.178Z,99211.27
2017-11-23T01:23:23.505Z,99209.07
2017-11-23T01:25:50.033Z,99207.67
2017-11-23T01:28:16.477Z,99209.85
2017-11-23T01:30:42.848Z,99210.73
2017-11-23T01:33:09.210Z,99209.27
2017-11-23T01:35:35.579Z,99220.92
2017-11-23T01:38:02.821Z,99216.33
2017-11-23T01:40:29.273Z,99217.48
2017-11-23T01:42:55.699Z,99222.48
2017-11-23T01:45:22.235Z,99220.33
2017-11-23T01:47:48.671Z,99220.12
2017-11-23T01:50:15.114Z,99219.08
2017-11-23T01:52:41.541Z,99220.83
2017-11-23T01:55:08.698Z,99208.05
2017-11-23T01:57:35.138Z,99214.78
2017-11-23T02:00:01.570Z,99220.36
2017-11-23T02:02:27.996Z,99216.42
2017-11-23T02:04:54.434Z,99223.47
2017-11-23T02:07:20.866Z,99226.47
2017-11-23T02:09:47.309Z,99226.60
2017-11-23T02:12:14.552Z,99224.67
2017-11-23T02:14:40.988Z,99223.51
2017-11-23T02:17:07.422Z,99220.41
2017-11-23T02:19:33.857Z,99221.80
2017-11-23T02:22:00.303Z,99226.52
2017-11-23T02:24:26.726Z,99230.36
2017-11-23T02:26:53.161Z,99237.94
2017-11-23T02:29:20.317Z,99236.33
2017-11-23T02:31:46.749Z,99235.34
2017-11-23T02:34:13.182Z,99237.65
2017-11-23T02:36:39.505Z,99242.25
2017-11-23T02:39:05.949Z,99242.68
2017-11-23T02:41:32.383Z,99242.70
2017-11-23T02:43:58.820Z,99243.91
2017-11-23T02:46:26.080Z,99246.15
2017-11-23T02:48:52.508Z,99244.52
2017-11-23T02:51:18.948Z,99252.05
2017-11-23T02:53:45.383Z,99245.15
2017-11-23T02:56:11.816Z,99255.89
2017-11-23T02:58:38.254Z,99251.06
2017-11-23T03:01:04.652Z,99255.99
2017-11-23T03:03:31.729Z,99261.63
2017-11-23T03:05:58.265Z,99257.35
2017-11-23T03:08:24.701Z,99257.31
2017-11-23T03:10:51.146Z,99258.83
2017-11-23T03:13:17.469Z,99264.02
2017-11-23T03:15:44.005Z,99266.49
2017-11-23T03:18:10.441Z,99265.84
2017-11-23T03:20:37.490Z,99263.73
2017-11-23T03:23:04.026Z,99273.62
2017-11-23T03:25:30.459Z,99279.66
2017-11-23T03:27:56.827Z,99278.80
2017-11-23T03:30:23.227Z,99279.33
2017-11-23T03:32:49.669Z,99281.09
2017-11-23T03:35:16.095Z,99283.94
2017-11-23T03:37:43.335Z,99290.87
2017-11-23T03:40:09.787Z,99287.38
2017-11-23T03:42:36.218Z,99293.27
2017-11-23T03:45:02.652Z,99292.70
2017-11-23T03:47:29.087Z,99290.41
2017-11-23T03:49:55.520Z,99293.09
2017-11-23T03:52:21.966Z,99296.13
2017-11-23T03:54:49.108Z,99293.73
2017-11-23T03:57:15.531Z,99295.74
2017-11-23T03:59:41.912Z,99294.55
2017-11-23T04:02:08.309Z,99299.23
2017-11-23T04:04:34.744Z,99301.50
2017-11-23T04:07:01.178Z,99302.95
2017-11-23T04:09:27.551Z,99313.27
2017-11-23T04:11:54.749Z,99305.88
2017-11-23T04:14:21.199Z,99309.30
2017-11-23T04:16:47.633Z,99315.03
2017-11-23T04:19:14.069Z,99310.25
2017-11-23T04:21:40.503Z,99317.47
2017-11-23T04:24:06.939Z,99318.11
2017-11-23T04:26:33.372Z,99321.76
2017-11-23T04:29:00.524Z,99328.91
2017-11-23T04:31:26.958Z,99321.59
2017-11-23T04:33:53.393Z,99323.77
2017-11-23T04:36:19.829Z,99326.21
2017-11-23T04:38:46.262Z,99321.00
2017-11-23T04:41:12.699Z,99332.80
2017-11-23T04:43:39.141Z,99339.75
2017-11-23T04:46:06.293Z,99349.38
2017-11-23T04:48:32.716Z,99340.78
2017-11-23T04:50:59.161Z,99344.23
2017-11-23T04:53:25.594Z,99354.04
2017-11-23T04:55:52.021Z,99354.83
2017-11-23T04:58:18.456Z,99360.84
2017-11-23T05:00:44.835Z,99350.95
2017-11-23T05:03:12.050Z,99358.73
2017-11-23T05:05:38.485Z,99363.75
2017-11-23T05:08:04.911Z,99369.37
2017-11-23T05:10:31.346Z,99373.86
2017-11-23T05:12:57.781Z,99381.00
2017-11-23T05:15:24.215Z,99376.81
2017-11-23T05:17:50.650Z,99382.19
2017-11-23T05:20:17.781Z,99385.41
2017-11-23T05:22:44.222Z,99382.05
2017-11-23T05:25:10.665Z,99393.31
2017-11-23T05:27:37.105Z,99395.71
2017-11-23T05:30:03.548Z,99410.00
2017-11-23T05:32:30.179Z,99411.40
2017-11-23T05:34:56.613Z,99411.91
2017-11-23T05:37:23.772Z,99411.31
2017-11-23T05:39:50.208Z,99412.92
2017-11-23T05:42:16.635Z,99413.70
2017-11-23T05:44:43.069Z,99427.05
2017-11-23T05:47:09.502Z,99425.86
2017-11-23T05:49:35.939Z,99426.91
2017-11-23T05:52:02.372Z,99426.91
2017-11-23T05:54:29.626Z,99432.33
2017-11-23T05:56:56.061Z,99434.44
2017-11-23T05:59:22.764Z,99433.20
2017-11-23T06:01:49.238Z,99427.77
2017-11-23T06:04:15.680Z,99438.81
2017-11-23T06:06:42.211Z,99440.23
2017-11-23T06:09:08.953Z,99441.18
2017-11-23T06:11:35.389Z,99443.83
2017-11-23T06:14:01.822Z,99441.45
2017-11-23T06:16:28.375Z,99444.64
2017-11-23T06:18:54.801Z,99445.13
2017-11-23T06:21:22.033Z,99451.39
2017-11-23T06:23:48.485Z,99452.22
2017-11-23T06:26:14.924Z,99452.56
2017-11-23T06:28:42.476Z,99460.99
2017-11-23T06:31:08.919Z,99464.38
2017-11-23T06:33:35.347Z,99465.78
2017-11-23T06:36:01.716Z,99468.49
2017-11-23T06:38:28.249Z,99466.05
2017-11-23T06:40:54.650Z,99471.09
2017-11-23T06:43:21.093Z,99472.18
2017-11-23T06:45:47.421Z,99471.31
2017-11-23T06:48:14.371Z,99469.48
2017-11-23T06:50:40.807Z,99476.06
2017-11-23T06:53:07.231Z,99473.36
2017-11-23T06:55:33.672Z,99478.03
2017-11-23T06:58:00.109Z,99474.66
2017-11-23T07:00:26.572Z,99475.87
2017-11-23T07:02:52.955Z,99480.27
2017-11-23T07:05:19.404Z,99482.65
2017-11-23T07:07:45.839Z,99485.00
2017-11-23T07:10:12.795Z,99488.69
2017-11-23T07:12:39.220Z,99483.41
2017-11-23T07:15:05.656Z,99494.61
2017-11-23T07:17:32.995Z,99489.17
2017-11-23T07:19:59.446Z,99490.03
2017-11-23T07:22:26.085Z,99492.66
2017-11-23T07:24:52.794Z,99497.11
2017-11-23T07:27:19.672Z,99490.09
2017-11-23T07:29:46.220Z,99493.24
2017-11-23T07:32:12.643Z,99497.44
2017-11-23T07:34:39.319Z,99495.34
2017-11-23T07:37:05.892Z,99501.80
2017-11-23T07:39:32.357Z,99496.99
2017-11-23T07:41:58.800Z,99498.37
2017-11-23T07:44:25.257Z,99498.80
2017-11-23T07:46:51.662Z,99509.16
2017-11-23T07:49:18.405Z,99504.05
2017-11-23T07:51:44.809Z,99499.20
2017-11-23T07:54:11.278Z,99498.95
2017-11-23T07:56:37.707Z,99499.32
2017-11-23T07:59:04.141Z,99504.72
2017-11-23T08:01:30.853Z,99507.13
2017-11-23T08:03:57.326Z,99506.71
2017-11-23T08:06:24.161Z,99504.53
2017-11-23T08:08:50.596Z,99508.67
2017-11-23T08:11:17.142Z,99505.22
2017-11-23T08:13:44.285Z,99506.86
2017-11-23T08:16:10.876Z,99499.88
2017-11-23T08:18:37.336Z,99506.79
2017-11-23T08:21:04.202Z,99508.63
2017-11-23T08:23:31.021Z,99511.34
2017-11-23T08:25:57.464Z,99508.33
2017-11-23T08:28:24.019Z,99507.42
2017-11-23T08:30:50.564Z,99511.91
2017-11-23T08:33:17.200Z,99511.42
2017-11-23T08:35:43.903Z,99516.87
2017-11-23T08:38:10.382Z,99516.16
2017-11-23T08:40:36.853Z,99511.30
2017-11-23T08:43:04.295Z,99511.45
2017-11-23T08:45:30.807Z,99514.34
2017-11-23T08:47:57.979Z,99519.72
2017-11-23T08:50:25.610Z,99517.98
2017-11-23T08:52:52.473Z,99515.63
2017-11-23T08:55:19.249Z,99513.02
2017-11-23T08:57:46.301Z,99513.90
2017-11-23T09:00:13.001Z,99516.44
2017-11-23T09:02:39.430Z,99518.64
2017-11-23T09:05:06.069Z,99515.81
2017-11-23T09:07:32.716Z,99511.84
2017-11-23T09:10:00.172Z,99501.33
2017-11-23T09:12:27.218Z,99508.17
2017-11-23T09:14:53.835Z,99506.27
2017-11-23T09:17:20.504Z,99502.34
2017-11-23T09:19:47.481Z,99505.42
2017-11-23T09:22:14.293Z,99498.67
2017-11-23T09:24:41.037Z,99499.11
2017-11-23T09:27:08.290Z,99493.45
2017-11-23T09:29:34.930Z,99495.74
2017-11-23T09:32:01.568Z,99495.87
2017-11-23T09:34:29.180Z,99491.64
2017-11-23T09:36:55.817Z,99486.45
2017-11-23T09:39:22.517Z,99483.53
2017-11-23T09:41:49.451Z,99484.03
2017-11-23T09:44:15.997Z,99480.99
2017-11-23T09:46:42.727Z,99471.88
2017-11-23T09:49:09.372Z,99466.98
2017-11-23T09:51:35.871Z,99466.25
2017-11-23T09:54:02.339Z,99466.50
2017-11-23T09:56:29.081Z,99464.05
2017-11-23T09:58:55.524Z,99459.59
2017-11-23T10:01:21.950Z,99458.20
2017-11-23T10:03:48.860Z,99458.60
2017-11-23T10:06:15.331Z,99465.77
2017-11-23T10:08:41.875Z,99459.33
2017-11-23T10:11:08.787Z,99467.84
2017-11-23T10:13:35.249Z,99460.37
2017-11-23T10:16:01.669Z,99459.44
2017-11-23T10:18:28.537Z,99454.56
2017-11-23T10:20:55.073Z,99454.59
2017-11-23T10:23:21.519Z,99458.90
2017-11-23T10:25:48.240Z,99456.81
2017-11-23T10:28:14.676Z,99452.61
2017-11-23T10:30:41.213Z,99453.97
2017-11-23T10:33:07.861Z,99448.77
2017-11-23T10:35:34.290Z,99451.97
2017-11-23T10:38:00.791Z,99453.11
2017-11-23T10:40:27.363Z,99451.51
2017-11-23T10:42:53.908Z,99452.17
2017-11-23T10:45:20.429Z,99457.91
2017-11-23T10:47:47.385Z,99451.64
2017-11-23T10:50:13.927Z,99458.17
2017-11-23T10:52:40.355Z,99457.71
2017-11-23T10:55:07.198Z,99450.42
2017-11-23T10:57:34.556Z,99450.13
2017-11-23T11:00:01.101Z,99447.13
2017-11-23T11:02:27.733Z,99442.21
2017-11-23T11:04:54.790Z,99445.23
2017-11-23T11:07:21.624Z,99443.13
2017-11-23T11:09:48.575Z,99443.03
2017-11-23T11:12:15.116Z,99441.28
2017-11-23T11:14:41.652Z,99441.02
2017-11-23T11:17:08.732Z,99440.07
2017-11-23T11:19:35.344Z,99435.78
2017-11-23T11:22:01.876Z,99437.41
2017-11-23T11:24:28.722Z,99435.38
2017-11-23T11:26:57.367Z,99431.07
2017-11-23T11:29:26.468Z,99432.67
2017-11-23T11:31:53.108Z,99433.50
2017-11-23T11:34:19.470Z,99429.57
2017-11-23T11:36:46.008Z,99425.09
2017-11-23T11:39:12.935Z,99425.44
2017-11-23T11:41:39.389Z,99426.80
2017-11-23T11:44:05.823Z,99430.47
2017-11-23T11:46:32.462Z,99431.65
2017-11-23T11:48:59.764Z,99440.26
2017-11-23T11:51:26.265Z,99406.26
2017-11-23T11:53:53.200Z,99433.14
2017-11-23T11:56:19.944Z,99435.06
2017-11-23T11:58:46.692Z,99437.67
2017-11-23T12:01:13.225Z,99442.97
2017-11-23T12:03:40.585Z,99437.75
2017-11-23T12:06:07.113Z,99436.97
2017-11-23T12:08:33.652Z,99438.91
2017-11-23T12:11:00.291Z,99433.52
2017-11-23T12:13:26.929Z,99425.58
2017-11-23T12:15:53.476Z,99428.77
2017-11-23T12:18:20.210Z,99425.00
2017-11-23T12:20:46.818Z,99425.89
2017-11-23T12:23:13.384Z,99416.13
2017-11-23T12:25:40.442Z,99419.73
2017-11-23T12:28:07.075Z,99420.69
2017-11-23T12:30:33.719Z,99416.98
2017-11-23T12:33:00.456Z,99418.63
2017-11-23T12:35:27.044Z,99416.83
2017-11-23T12:37:53.482Z,99409.53
2017-11-23T12:40:20.477Z,99408.36
2017-11-23T12:42:47.121Z,99405.14
2017-11-23T12:45:13.663Z,99405.91
2017-11-23T12:47:40.840Z,99407.18
2017-11-23T12:50:07.449Z,99406.26
2017-11-23T12:52:33.864Z,99386.55
2017-11-23T12:55:00.620Z,99396.08
2017-11-23T12:57:27.054Z,99400.36
2017-11-23T12:59:53.490Z,99399.27
2017-11-23T13:02:19.933Z,99398.09
2017-11-23T13:04:46.358Z,99399.77
2017-11-23T13:07:13.203Z,99407.88
2017-11-23T13:09:39.747Z,99402.62
2017-11-23T13:12:06.695Z,99405.82
2017-11-23T13:14:33.137Z,99407.44
2017-11-23T13:16:59.965Z,99407.45
2017-11-23T13:19:26.505Z,99401.68
2017-11-23T13:21:52.938Z,99399.53
2017-11-23T13:24:19.985Z,99402.02
2017-11-23T13:26:46.736Z,99401.95
2017-11-23T13:29:13.330Z,99395.05
2017-11-23T13:36:43.511Z,99400.96
2017-11-23T13:46:45.105Z,99399.49
2017-11-23T13:49:11.675Z,99401.48
2017-11-23T13:51:38.212Z,99409.59
2017-11-23T13:54:04.684Z,99418.53
2017-11-23T13:56:31.191Z,99410.43
2017-11-23T13:58:57.720Z,99410.56
2017-11-23T14:01:24.271Z,99405.79
2017-11-23T14:03:51.376Z,99417.55
2017-11-23T14:06:17.846Z,99422.04
2017-11-23T14:08:44.175Z,99425.73
2017-11-23T14:11:10.541Z,99420.54
2017-11-23T14:13:37.054Z,99421.91
2017-11-23T14:16:03.426Z,99418.70
2017-11-23T14:18:30.017Z,99427.14
2017-11-23T14:20:56.562Z,99424.61
2017-11-23T14:23:22.988Z,99421.65
2017-11-23T14:25:49.640Z,99430.30
2017-11-23T14:28:16.882Z,99430.96
2017-11-23T14:30:43.425Z,99428.71
2017-11-23T14:33:09.997Z,99428.09
2017-11-23T14:35:36.554Z,99425.69
2017-11-23T14:38:03.030Z,99433.61
2017-11-23T14:40:29.398Z,99431.53
2017-11-23T14:42:55.871Z,99434.73
2017-11-23T14:45:22.615Z,99432.33
2017-11-23T14:47:49.442Z,99436.84
2017-11-23T14:50:16.598Z,99439.94
2017-11-23T14:52:43.295Z,99435.75
2017-11-23T14:55:09.923Z,99437.10
2017-11-23T15:02:39.228Z,99442.38
2017-11-23T15:05:05.601Z,99436.53
2017-11-23T15:07:32.045Z,99432.97
2017-11-23T15:09:58.582Z,99444.33
2017-11-23T15:12:25.008Z,99444.72
2017-11-23T15:14:51.373Z,99445.94
2017-11-23T15:17:17.714Z,99447.98
2017-11-23T15:19:44.209Z,99446.73
2017-11-23T15:22:10.651Z,99449.00
2017-11-23T15:24:37.180Z,99450.95
2017-11-23T15:27:03.581Z,99457.15
2017-11-23T15:29:30.153Z,99464.38
2017-11-23T15:31:56.588Z,99452.31
2017-11-23T15:34:23.030Z,99464.58
2017-11-23T15:36:49.434Z,99465.16
2017-11-23T15:39:15.821Z,99463.58
2017-11-23T15:41:42.412Z,99466.98
2017-11-23T15:44:08.992Z,99467.03
2017-11-23T15:46:35.593Z,99473.38
2017-11-23T15:49:02.048Z,99473.15
2017-11-23T15:51:28.484Z,99470.38
2017-11-23T15:53:55.021Z,99467.18
2017-11-23T15:56:21.447Z,99464.77
2017-11-23T15:58:48.085Z,99471.08
2017-11-23T16:01:16.132Z,99477.30
2017-11-23T16:03:42.534Z,99490.60
2017-11-23T16:06:09.002Z,99487.93
2017-11-23T16:08:35.444Z,99478.53
2017-11-23T16:23:38.620Z,99495.71
2017-11-23T16:26:05.055Z,99497.87
2017-11-23T16:28:31.490Z,99495.30
2017-11-23T16:30:57.931Z,99500.26
2017-11-23T16:33:24.492Z,99504.25
2017-11-23T16:35:54.599Z,99501.16
2017-11-23T16:38:21.025Z,99499.54
2017-11-23T16:40:47.461Z,99505.73
2017-11-23T16:43:13.895Z,99502.37
2017-11-23T16:50:21.517Z,99504.16
2017-11-23T16:55:43.776Z,99504.27
2017-11-23T16:58:10.234Z,99502.25
2017-11-23T17:00:36.647Z,99497.69
2017-11-23T17:03:03.111Z,99502.34
2017-11-23T17:05:29.626Z,99504.73
2017-11-23T17:07:56.056Z,99503.00
2017-11-23T17:16:05.836Z,99487.84
2017-11-23T17:21:10.486Z,99483.67
2017-11-23T17:23:36.928Z,99485.00
2017-11-23T17:26:03.362Z,99487.53
2017-11-23T17:31:06.156Z,99496.64
2017-11-23T17:33:32.692Z,99499.97
2017-11-23T17:38:45.940Z,99496.94
2017-11-23T17:46:02.071Z,99495.50
2017-11-23T17:54:56.485Z,99495.95
2017-11-23T17:57:22.935Z,99502.48
2017-11-23T18:01:27.774Z,99490.30
2017-11-23T18:03:54.236Z,99500.20
2017-11-23T18:06:20.652Z,99486.58
2017-11-23T18:08:47.087Z,99504.46
2017-11-23T18:11:13.420Z,99501.81
2017-11-23T18:13:39.752Z,99505.81
2017-11-23T18:22:21.387Z,99506.17
2017-11-23T18:24:47.933Z,99495.50
2017-11-23T18:27:14.359Z,99504.21
2017-11-23T18:36:37.568Z,99501.00
2017-11-23T19:04:18.537Z,99519.06
2017-11-23T19:06:44.993Z,99515.94
2017-11-23T19:11:52.177Z,99513.92
2017-11-23T19:14:18.569Z,99512.55
2017-11-23T19:21:51.442Z,99504.64
2017-11-23T19:24:17.920Z,99504.12
2017-11-23T19:26:44.370Z,99480.92
2017-11-23T19:34:46.101Z,99508.19
2017-11-23T19:37:12.530Z,99505.83
2017-11-23T19:39:38.961Z,99506.55
2017-11-23T19:42:05.396Z,99499.43
2017-11-23T19:44:31.765Z,99502.23
2017-11-23T19:53:45.608Z,99503.11
2017-11-23T19:56:12.060Z,99507.20
2017-11-23T19:58:38.498Z,99508.52
2017-11-23T20:01:04.855Z,99510.05
2017-11-23T20:07:59.652Z,99511.38
2017-11-23T20:10:26.088Z,99511.46
2017-11-23T20:18:09.770Z,99503.22
2017-11-23T20:20:36.196Z,99502.39
2017-11-23T20:28:53.877Z,99492.92
2017-11-23T20:37:26.709Z,99521.03
2017-11-23T20:42:31.763Z,99522.32
2017-11-23T20:44:58.215Z,99518.55
2017-11-23T20:53:04.767Z,99522.57
2017-11-23T21:01:15.488Z,99522.98
2017-11-23T21:06:29.893Z,99525.06
2017-11-23T21:08:56.328Z,99530.34
2017-11-23T21:11:22.868Z,99533.65
2017-11-23T21:13:52.782Z,99531.94
2017-11-23T21:16:19.216Z,99533.02
2017-11-23T21:18:45.572Z,99530.76
2017-11-23T21:21:11.999Z,99532.55
2017-11-23T21:23:38.519Z,99529.41
2017-11-23T21:26:04.947Z,99520.36
2017-11-23T21:28:31.380Z,99523.30
2017-11-23T21:30:57.711Z,99526.89
2017-11-23T21:33:24.147Z,99527.77
2017-11-23T21:35:50.613Z,99530.56
2017-11-23T21:38:17.017Z,99526.66
2017-11-23T21:40:43.349Z,99529.88
2017-11-23T21:43:09.794Z,99531.30
2017-11-23T21:45:36.186Z,99531.89
2017-11-23T21:48:02.670Z,99488.74
2017-11-23T21:50:29.839Z,99540.27
2017-11-23T21:52:56.239Z,99540.25
2017-11-23T21:55:22.682Z,99539.14
2017-11-23T21:57:49.108Z,99545.65
2017-11-23T22:00:15.546Z,99519.61
2017-11-23T22:02:41.947Z,99539.70
2017-11-23T22:05:08.381Z,99544.91
2017-11-23T22:07:35.568Z,99521.35
2017-11-23T22:10:01.898Z,99545.73
2017-11-23T22:12:28.406Z,99547.60
2017-11-23T22:14:54.876Z,99549.59
2017-11-23T22:17:21.230Z,99548.23
2017-11-23T22:19:47.633Z,99548.47
2017-11-23T22:22:14.068Z,99543.23
2017-11-23T22:24:41.220Z,99548.52
2017-11-23T22:27:07.654Z,99549.63
2017-11-23T22:29:34.089Z,99548.98
2017-11-23T22:32:00.527Z,99545.67
2017-11-23T22:34:26.968Z,99547.94
2017-11-23T22:36:53.393Z,99544.29
2017-11-23T22:39:19.828Z,99541.78
2017-11-23T22:41:46.980Z,99530.66
2017-11-23T22:44:13.423Z,99534.02
2017-11-23T22:46:39.849Z,99529.73
2017-11-23T22:49:06.289Z,99520.12
2017-11-23T22:51:32.718Z,99520.76
2017-11-23T22:53:59.161Z,99521.92
2017-11-23T22:56:25.595Z,99523.66
2017-11-23T22:58:52.849Z,99527.71
2017-11-23T23:01:19.243Z,99526.38
2017-11-23T23:03:45.718Z,99524.70
2017-11-23T23:06:12.154Z,99523.27
2017-11-23T23:13:02.669Z,99520.00
2017-11-23T23:15:29.114Z,99521.08
2017-11-23T23:17:55.544Z,99516.27
2017-11-23T23:20:21.980Z,99519.47
2017-11-23T23:22:48.422Z,99515.47
2017-11-23T23:25:14.879Z,99515.19
2017-11-23T23:27:41.282Z,99517.08
2017-11-23T23:30:07.805Z,99511.47
2017-11-23T23:32:34.257Z,99517.17
2017-11-23T23:35:00.700Z,99516.99
2017-11-23T23:37:27.115Z,99519.20
2017-11-23T23:39:53.532Z,99518.78
2017-11-23T23:47:33.045Z,99504.88
2017-11-23T23:49:59.470Z,99519.78
2017-11-23T23:52:25.904Z,99518.48
2017-11-23T23:54:52.358Z,99523.89
2017-11-23T23:57:18.773Z,99527.39
2017-11-23T23:59:45.276Z,99534.11
